createdAt,value
2022-10-24T00:03:57.113Z,100604.38
2022-10-24T00:06:23.607Z,100600.41
2022-10-24T00:08:50.058Z,100600.41
2022-10-24T00:13:43.804Z,100604.38
2022-10-24T00:19:04.923Z,100608.75
2022-10-24T00:21:32.224Z,100605.59
2022-10-24T00:23:58.688Z,100607.59
2022-10-24T00:26:25.143Z,100610.78
2022-10-24T00:28:52.572Z,100607.19
2022-10-24T00:34:14.973Z,100619.16
2022-10-24T00:36:42.337Z,100616.38
2022-10-24T00:39:08.765Z,100620.72
2022-10-24T00:41:36.137Z,100619.53
2022-10-24T00:44:03.493Z,100619.56
2022-10-24T00:49:24.860Z,100606.44
2022-10-24T00:51:51.363Z,100610.00
2022-10-24T00:54:18.737Z,100605.66
2022-10-24T00:56:46.080Z,100594.53
2022-10-24T00:59:12.523Z,100586.22
2022-10-24T01:04:22.824Z,100580.59
2022-10-24T01:06:50.192Z,100581.38
2022-10-24T01:09:16.654Z,100581.81
2022-10-24T01:11:43.095Z,100581.00
2022-10-24T01:14:09.562Z,100572.66
2022-10-24T01:16:36.006Z,100570.66
2022-10-24T01:19:02.457Z,100575.06
2022-10-24T01:21:28.928Z,100568.66
2022-10-24T01:23:56.358Z,100566.31
2022-10-24T01:26:22.795Z,100565.50
2022-10-24T01:28:49.249Z,100562.31
2022-10-24T01:31:15.710Z,100559.94
2022-10-24T01:33:43.099Z,100546.41
2022-10-24T01:36:10.478Z,100545.63
2022-10-24T01:38:36.927Z,100545.63
2022-10-24T01:41:03.393Z,100544.47
2022-10-24T01:43:30.771Z,100555.22
2022-10-24T01:45:58.178Z,100549.66
2022-10-24T01:48:24.621Z,100553.66
2022-10-24T01:50:51.092Z,100544.47
2022-10-24T01:53:19.973Z,100545.31
2022-10-24T01:55:47.692Z,100540.91
2022-10-24T01:58:15.100Z,100529.78
2022-10-24T02:03:13.896Z,100530.56
2022-10-24T02:05:42.369Z,100514.69
2022-10-24T02:08:08.935Z,100510.72
2022-10-24T02:10:35.388Z,100508.72
2022-10-24T02:13:02.785Z,100494.75
2022-10-24T02:15:29.212Z,100485.22
2022-10-24T02:17:56.581Z,100476.91
2022-10-24T02:20:23.039Z,100488.44
2022-10-24T02:22:49.478Z,100482.50
2022-10-24T02:25:15.949Z,100488.06
2022-10-24T02:27:42.663Z,100482.50
2022-10-24T02:30:09.375Z,100485.28
2022-10-24T02:32:35.824Z,100489.66
2022-10-24T02:35:02.306Z,100496.00
2022-10-24T02:37:29.660Z,100491.63
2022-10-24T02:39:57.062Z,100496.03
2022-10-24T02:42:23.529Z,100493.63
2022-10-24T02:44:50.014Z,100496.00
2022-10-24T02:47:17.401Z,100499.59
2022-10-24T02:52:38.711Z,100490.44
2022-10-24T02:55:05.218Z,100490.84
2022-10-24T02:57:31.666Z,100489.66
2022-10-24T02:59:58.109Z,100484.88
2022-10-24T03:02:24.545Z,100486.44
2022-10-24T03:07:34.843Z,100479.72
2022-10-24T03:10:02.213Z,100470.19
2022-10-24T03:12:28.663Z,100470.19
2022-10-24T03:14:55.127Z,100471.78
2022-10-24T03:17:22.569Z,100473.78
2022-10-24T03:22:34.089Z,100467.84
2022-10-24T03:25:00.555Z,100460.69
2022-10-24T03:27:26.968Z,100462.28
2022-10-24T03:29:53.432Z,100453.16
2022-10-24T03:32:20.834Z,100450.75
2022-10-24T03:37:42.259Z,100459.91
2022-10-24T03:40:08.785Z,100467.47
2022-10-24T03:42:35.239Z,100454.00
2022-10-24T03:45:02.604Z,100451.53
2022-10-24T03:47:29.978Z,100451.97
2022-10-24T03:52:40.541Z,100448.75
2022-10-24T03:55:07.004Z,100450.34
2022-10-24T03:57:33.991Z,100447.97
2022-10-24T04:00:00.477Z,100445.59
2022-10-24T04:02:26.949Z,100443.19
2022-10-24T04:07:48.177Z,100446.41
2022-10-24T04:10:15.651Z,100449.19
2022-10-24T04:12:42.088Z,100444.84
2022-10-24T04:15:08.608Z,100441.28
2022-10-24T04:17:35.985Z,100436.13
2022-10-24T04:22:46.757Z,100422.94
2022-10-24T04:25:14.309Z,100419.78
2022-10-24T04:27:41.715Z,100420.16
2022-10-24T04:30:09.859Z,100422.53
2022-10-24T04:32:38.071Z,100416.19
2022-10-24T04:37:58.497Z,100397.25
2022-10-24T04:40:24.959Z,100394.38
2022-10-24T04:42:51.421Z,100381.16
2022-10-24T04:45:17.888Z,100380.31
2022-10-24T04:47:44.596Z,100379.50
2022-10-24T04:53:05.999Z,100368.78
2022-10-24T04:55:32.539Z,100371.94
2022-10-24T04:57:59.043Z,100363.59
2022-10-24T05:00:26.399Z,100364.81
2022-10-24T05:02:54.210Z,100357.63
2022-10-24T05:08:07.220Z,100356.84
2022-10-24T05:10:34.581Z,100349.69
2022-10-24T05:13:01.024Z,100350.16
2022-10-24T05:15:27.497Z,100345.47
2022-10-24T05:17:54.881Z,100350.72
2022-10-24T05:23:16.146Z,100344.75
2022-10-24T05:25:42.688Z,100338.78
2022-10-24T05:28:09.158Z,100331.25
2022-10-24T05:30:36.526Z,100332.03
2022-10-24T05:33:02.995Z,100321.28
2022-10-24T05:38:14.301Z,100329.78
2022-10-24T05:40:40.861Z,100350.44
2022-10-24T05:43:07.335Z,100357.94
2022-10-24T05:45:33.783Z,100358.31
2022-10-24T05:48:00.245Z,100366.66
2022-10-24T05:53:11.843Z,100348.34
2022-10-24T05:55:38.291Z,100349.16
2022-10-24T05:58:05.683Z,100350.75
2022-10-24T06:00:32.139Z,100344.41
2022-10-24T06:02:59.503Z,100349.56
2022-10-24T06:08:20.807Z,100360.66
2022-10-24T06:10:48.319Z,100372.94
2022-10-24T06:13:14.841Z,100370.56
2022-10-24T06:15:41.444Z,100373.31
2022-10-24T06:18:08.117Z,100369.38
2022-10-24T06:23:29.514Z,100366.97
2022-10-24T06:25:55.997Z,100363.38
2022-10-24T06:28:23.388Z,100360.59
2022-10-24T06:30:49.822Z,100357.78
2022-10-24T06:33:17.182Z,100359.78
2022-10-24T06:38:28.453Z,100343.06
2022-10-24T06:40:55.846Z,100338.66
2022-10-24T06:43:22.340Z,100340.66
2022-10-24T06:45:49.707Z,100338.25
2022-10-24T06:48:16.147Z,100343.84
2022-10-24T06:53:37.277Z,100380.88
2022-10-24T06:56:03.720Z,100384.84
2022-10-24T06:58:31.083Z,100385.63
2022-10-24T07:00:58.543Z,100387.22
2022-10-24T07:03:26.020Z,100397.94
2022-10-24T07:08:47.324Z,100411.88
2022-10-24T07:11:14.741Z,100391.63
2022-10-24T07:13:41.193Z,100405.53
2022-10-24T07:16:07.740Z,100414.22
2022-10-24T07:18:34.173Z,100427.72
2022-10-24T07:23:46.460Z,100444.34
2022-10-24T07:26:13.876Z,100436.41
2022-10-24T07:28:41.259Z,100429.63
2022-10-24T07:31:07.773Z,100420.50
2022-10-24T07:33:34.242Z,100424.84
2022-10-24T07:38:46.050Z,100391.63
2022-10-24T07:41:12.510Z,100389.72
2022-10-24T07:43:38.958Z,100382.09
2022-10-24T07:46:05.425Z,100379.78
2022-10-24T07:48:31.891Z,100369.53
2022-10-24T07:53:53.358Z,100379.53
2022-10-24T07:56:20.760Z,100375.13
2022-10-24T07:58:47.211Z,100383.09
2022-10-24T08:01:13.818Z,100381.13
2022-10-24T08:03:40.291Z,100368.00
2022-10-24T08:08:50.857Z,100374.78
2022-10-24T08:11:18.478Z,100368.03
2022-10-24T08:13:44.971Z,100354.91
2022-10-24T08:16:12.405Z,100358.84
2022-10-24T08:18:39.915Z,100362.44
2022-10-24T08:23:51.508Z,100354.91
2022-10-24T08:26:18.882Z,100362.44
2022-10-24T08:28:45.357Z,100359.25
2022-10-24T08:31:12.731Z,100354.88
2022-10-24T08:33:39.188Z,100346.94
2022-10-24T08:39:00.689Z,100355.63
2022-10-24T08:41:27.304Z,100357.25
2022-10-24T08:43:54.823Z,100351.31
2022-10-24T08:46:22.191Z,100356.84
2022-10-24T08:48:48.644Z,100367.59
2022-10-24T08:54:00.120Z,100360.81
2022-10-24T08:56:26.570Z,100360.44
2022-10-24T08:58:53.093Z,100357.63
2022-10-24T09:01:20.649Z,100354.78
2022-10-24T09:04:02.612Z,100361.94
2022-10-24T09:09:24.102Z,100363.78
2022-10-24T09:11:50.558Z,100367.38
2022-10-24T09:14:17.011Z,100365.00
2022-10-24T09:16:43.511Z,100364.69
2022-10-24T09:19:10.893Z,100362.31
2022-10-24T09:24:32.439Z,100352.84
2022-10-24T09:26:59.821Z,100351.75
2022-10-24T09:29:26.309Z,100346.94
2022-10-24T09:31:52.778Z,100356.28
2022-10-24T09:34:20.201Z,100353.66
2022-10-24T09:39:42.511Z,100357.25
2022-10-24T09:42:08.962Z,100355.00
2022-10-24T09:44:35.426Z,100353.69
2022-10-24T09:47:02.826Z,100352.03
2022-10-24T09:49:30.184Z,100346.56
2022-10-24T09:54:51.550Z,100350.50
2022-10-24T09:57:18.949Z,100348.53
2022-10-24T09:59:46.308Z,100350.63
2022-10-24T10:02:13.737Z,100351.84
2022-10-24T10:04:40.248Z,100349.84
2022-10-24T10:09:55.606Z,100336.28
2022-10-24T10:12:24.300Z,100339.44
2022-10-24T10:14:51.663Z,100339.06
2022-10-24T10:17:19.039Z,100342.66
2022-10-24T10:19:45.511Z,100336.31
2022-10-24T10:24:57.015Z,100336.31
2022-10-24T10:27:23.445Z,100335.53
2022-10-24T10:29:49.877Z,100331.97
2022-10-24T10:32:17.232Z,100334.31
2022-10-24T10:34:44.607Z,100341.09
2022-10-24T10:37:11.037Z,100333.50
2022-10-24T10:39:41.818Z,100335.88
2022-10-24T10:42:11.671Z,100330.16
2022-10-24T10:44:38.172Z,100332.53
2022-10-24T10:47:05.569Z,100315.75
2022-10-24T10:49:32.030Z,100329.72
2022-10-24T10:51:59.410Z,100329.22
2022-10-24T10:54:26.749Z,100333.56
2022-10-24T10:56:54.076Z,100342.28
2022-10-24T10:59:23.566Z,100346.25
2022-10-24T11:01:53.298Z,100345.47
2022-10-24T11:04:19.766Z,100344.66
2022-10-24T11:06:47.049Z,100343.31
2022-10-24T11:09:13.529Z,100341.53
2022-10-24T11:11:40.893Z,100336.88
2022-10-24T11:14:08.266Z,100336.59
2022-10-24T11:16:34.729Z,100337.00
2022-10-24T11:19:02.087Z,100338.53
2022-10-24T11:21:28.536Z,100336.59
2022-10-24T11:23:54.970Z,100335.84
2022-10-24T11:26:21.416Z,100333.81
2022-10-24T11:28:47.870Z,100332.22
2022-10-24T11:31:15.233Z,100333.03
2022-10-24T11:33:41.718Z,100327.88
2022-10-24T11:36:08.178Z,100332.28
2022-10-24T11:38:34.652Z,100325.44
2022-10-24T11:41:01.095Z,100326.25
2022-10-24T11:43:28.141Z,100320.69
2022-10-24T11:45:54.615Z,100318.34
2022-10-24T11:48:21.079Z,100323.13
2022-10-24T11:50:48.453Z,100325.03
2022-10-24T11:53:15.861Z,100320.69
2022-10-24T11:55:42.309Z,100314.03
2022-10-24T11:58:08.778Z,100312.44
2022-10-24T12:00:35.238Z,100309.38
2022-10-24T12:03:01.743Z,100311.38
2022-10-24T12:05:28.341Z,100312.16
2022-10-24T12:07:54.801Z,100308.97
2022-10-24T12:13:06.008Z,100310.09
2022-10-24T12:15:35.475Z,100301.22
2022-10-24T12:18:04.052Z,100307.22
2022-10-24T12:20:31.419Z,100300.16
2022-10-24T12:22:57.886Z,100285.78
2022-10-24T12:28:10.296Z,100285.47
2022-10-24T12:30:36.772Z,100277.50
2022-10-24T12:33:03.249Z,100274.16
2022-10-24T12:35:31.569Z,100271.66
2022-10-24T12:37:59.266Z,100263.84
2022-10-24T12:43:10.815Z,100265.72
2022-10-24T12:45:38.191Z,100266.50
2022-10-24T12:48:05.509Z,100263.31
2022-10-24T12:50:31.949Z,100266.53
2022-10-24T12:52:58.406Z,100268.97
2022-10-24T12:58:19.768Z,100266.63
2022-10-24T13:00:46.197Z,100256.31
2022-10-24T13:03:13.538Z,100257.16
2022-10-24T13:05:39.968Z,100247.50
2022-10-24T13:08:07.316Z,100243.81
2022-10-24T13:13:29.320Z,100244.19
2022-10-24T13:15:55.766Z,100240.56
2022-10-24T13:18:23.071Z,100249.22
2022-10-24T13:20:49.571Z,100254.06
2022-10-24T13:23:16.912Z,100253.56
2022-10-24T13:28:28.236Z,100257.56
2022-10-24T13:30:55.540Z,100252.47
2022-10-24T13:33:21.966Z,100247.66
2022-10-24T13:35:49.243Z,100258.03
2022-10-24T13:38:15.731Z,100253.34
2022-10-24T13:43:27.990Z,100251.47
2022-10-24T13:45:54.385Z,100253.75
2022-10-24T13:48:21.754Z,100252.16
2022-10-24T13:50:48.141Z,100243.44
2022-10-24T13:53:14.594Z,100249.81
2022-10-24T13:58:24.954Z,100254.94
2022-10-24T14:00:51.369Z,100249.72
2022-10-24T14:03:18.797Z,100252.09
2022-10-24T14:05:46.128Z,100246.84
2022-10-24T14:08:12.582Z,100245.28
2022-10-24T14:13:33.028Z,100237.75
2022-10-24T14:16:00.245Z,100242.84
2022-10-24T14:18:26.720Z,100245.56
2022-10-24T14:20:55.014Z,100239.16
2022-10-24T14:23:23.314Z,100241.06
2022-10-24T14:31:10.044Z,100249.84
2022-10-24T14:33:38.336Z,100255.03
2022-10-24T14:36:04.772Z,100250.72
2022-10-24T14:38:31.237Z,100262.63
2022-10-24T14:43:52.404Z,100261.84
2022-10-24T14:46:22.192Z,100257.13
2022-10-24T14:48:53.216Z,100262.34
2022-10-24T14:51:19.691Z,100256.03
2022-10-24T14:53:46.905Z,100256.75
2022-10-24T14:58:58.371Z,100257.56
2022-10-24T15:01:25.692Z,100258.31
2022-10-24T15:03:52.337Z,100256.72
2022-10-24T15:06:18.745Z,100260.66
2022-10-24T15:08:46.108Z,100264.25
2022-10-24T15:14:08.288Z,100268.63
2022-10-24T15:16:34.683Z,100267.78
2022-10-24T15:19:01.153Z,100257.88
2022-10-24T15:21:27.558Z,100265.41
2022-10-24T15:23:53.955Z,100257.44
2022-10-24T15:29:14.927Z,100266.91
2022-10-24T15:31:41.349Z,100268.19
2022-10-24T15:34:08.643Z,100264.63
2022-10-24T15:36:35.980Z,100260.53
2022-10-24T15:39:02.396Z,100263.75
2022-10-24T15:44:13.553Z,100269.69
2022-10-24T15:46:39.947Z,100265.88
2022-10-24T15:49:06.377Z,100275.31
2022-10-24T15:51:33.706Z,100280.84
2022-10-24T15:54:01.025Z,100279.94
2022-10-24T15:59:12.430Z,100275.69
2022-10-24T16:01:40.534Z,100266.59
2022-10-24T16:04:07.408Z,100272.22
2022-10-24T16:06:33.892Z,100277.59
2022-10-24T16:09:01.119Z,100278.00
2022-10-24T16:14:22.536Z,100268.03
2022-10-24T16:16:48.978Z,100264.91
2022-10-24T16:19:17.265Z,100253.16
2022-10-24T16:21:43.889Z,100259.84
2022-10-24T16:24:11.150Z,100261.84
2022-10-24T16:29:23.201Z,100276.53
2022-10-24T16:31:50.409Z,100267.88
2022-10-24T16:34:16.810Z,100266.50
2022-10-24T16:36:44.066Z,100273.72
2022-10-24T16:39:11.293Z,100267.78
2022-10-24T16:44:22.979Z,100274.59
2022-10-24T16:46:49.430Z,100274.97
2022-10-24T16:49:16.156Z,100273.38
2022-10-24T16:51:43.942Z,100270.34
2022-10-24T16:54:10.592Z,100276.56
2022-10-24T16:59:30.956Z,100273.16
2022-10-24T17:01:57.513Z,100272.28
2022-10-24T17:04:25.482Z,100280.75
2022-10-24T17:06:52.943Z,100280.38
2022-10-24T17:09:20.248Z,100276.41
2022-10-24T17:14:40.857Z,100277.78
2022-10-24T17:17:07.532Z,100287.31
2022-10-24T17:19:33.967Z,100284.19
2022-10-24T17:22:01.347Z,100290.03
2022-10-24T17:24:27.791Z,100284.09
2022-10-24T17:29:50.003Z,100277.34
2022-10-24T17:32:16.506Z,100272.59
2022-10-24T17:34:42.991Z,100276.06
2022-10-24T17:37:09.475Z,100277.19
2022-10-24T17:39:35.968Z,100276.06
2022-10-24T17:44:47.594Z,100272.50
2022-10-24T17:47:14.979Z,100270.13
2022-10-24T17:49:41.870Z,100264.38
2022-10-24T17:52:08.349Z,100256.84
2022-10-24T17:54:35.549Z,100272.44
2022-10-24T17:59:56.744Z,100256.53
2022-10-24T18:02:23.237Z,100261.16
2022-10-24T18:04:50.725Z,100268.75
2022-10-24T18:07:18.255Z,100271.03
2022-10-24T18:09:45.650Z,100274.31
2022-10-24T18:15:07.258Z,100280.03
2022-10-24T18:17:35.615Z,100276.75
2022-10-24T18:20:02.090Z,100269.09
2022-10-24T18:22:28.539Z,100275.59
2022-10-24T18:24:55.019Z,100269.28
2022-10-24T18:30:05.441Z,100265.00
2022-10-24T18:32:32.833Z,100266.19
2022-10-24T18:35:00.255Z,100271.44
2022-10-24T18:37:26.734Z,100264.31
2022-10-24T18:39:53.338Z,100273.00
2022-10-24T18:45:05.031Z,100266.13
2022-10-24T18:47:32.656Z,100259.19
2022-10-24T18:49:59.113Z,100253.63
2022-10-24T18:52:25.555Z,100236.88
2022-10-24T18:54:52.852Z,100239.03
2022-10-24T19:00:14.911Z,100238.06
2022-10-24T19:02:41.617Z,100241.19
2022-10-24T19:05:08.885Z,100238.28
2022-10-24T19:07:35.286Z,100240.34
2022-10-24T19:10:02.516Z,100228.66
2022-10-24T19:15:15.398Z,100234.28
2022-10-24T19:17:41.859Z,100229.44
2022-10-24T19:20:08.323Z,100231.50
2022-10-24T19:22:34.774Z,100228.34
2022-10-24T19:25:04.133Z,100223.50
2022-10-24T19:30:18.237Z,100217.84
2022-10-24T19:32:44.796Z,100216.84
2022-10-24T19:35:13.560Z,100215.06
2022-10-24T19:37:41.015Z,100207.47
2022-10-24T19:40:07.422Z,100211.09
2022-10-24T19:42:34.817Z,100207.22
2022-10-24T19:45:02.467Z,100210.78
2022-10-24T19:47:28.891Z,100222.25
2022-10-24T19:49:56.174Z,100213.63
2022-10-24T19:52:23.448Z,100212.25
2022-10-24T19:54:49.862Z,100215.31
2022-10-24T19:57:16.277Z,100209.38
2022-10-24T19:59:42.703Z,100202.34
2022-10-24T20:02:09.127Z,100221.28
2022-10-24T20:04:35.530Z,100219.66
2022-10-24T20:07:02.125Z,100220.63
2022-10-24T20:09:29.422Z,100223.56
2022-10-24T20:11:55.828Z,100221.94
2022-10-24T20:14:23.063Z,100221.03
2022-10-24T20:16:50.301Z,100218.63
2022-10-24T20:19:16.800Z,100212.09
2022-10-24T20:21:43.224Z,100219.47
2022-10-24T20:24:09.665Z,100224.25
2022-10-24T20:26:36.087Z,100227.88
2022-10-24T20:29:02.509Z,100226.69
2022-10-24T20:31:28.922Z,100227.56
2022-10-24T20:33:56.257Z,100227.94
2022-10-24T20:36:23.559Z,100226.22
2022-10-24T20:38:49.979Z,100230.72
2022-10-24T20:41:17.218Z,100230.72
2022-10-24T20:43:43.676Z,100235.03
2022-10-24T20:46:10.965Z,100233.56
2022-10-24T20:48:38.178Z,100228.75
2022-10-24T20:51:04.742Z,100231.91
2022-10-24T20:53:31.200Z,100231.91
2022-10-24T20:55:57.606Z,100230.03
2022-10-24T20:58:24.879Z,100231.53
2022-10-24T21:00:52.145Z,100234.22
2022-10-24T21:03:18.611Z,100228.41
2022-10-24T21:05:45.910Z,100230.81
2022-10-24T21:08:12.490Z,100234.91
2022-10-24T21:10:38.957Z,100226.53
2022-10-24T21:13:05.343Z,100220.97
2022-10-24T21:18:26.613Z,100229.44
2022-10-24T21:20:53.869Z,100230.13
2022-10-24T21:23:21.136Z,100238.47
2022-10-24T21:25:48.406Z,100244.00
2022-10-24T21:28:14.891Z,100238.09
2022-10-24T21:33:36.945Z,100238.88
2022-10-24T21:36:04.248Z,100248.06
2022-10-24T21:38:31.457Z,100250.44
2022-10-24T21:40:57.843Z,100252.03
2022-10-24T21:43:24.295Z,100257.25
2022-10-24T21:48:35.639Z,100247.69
2022-10-24T21:51:02.051Z,100261.63
2022-10-24T21:53:29.331Z,100261.63
2022-10-24T21:55:56.531Z,100271.56
2022-10-24T21:58:23.735Z,100266.44
2022-10-24T22:03:45.851Z,100269.66
2022-10-24T22:06:13.096Z,100275.25
2022-10-24T22:08:40.325Z,100274.03
2022-10-24T22:11:08.637Z,100274.47
2022-10-24T22:13:37.803Z,100278.41
2022-10-24T22:18:49.162Z,100273.66
2022-10-24T22:21:15.634Z,100272.91
2022-10-24T22:23:42.158Z,100279.66
2022-10-24T22:26:08.582Z,100272.53
2022-10-24T22:28:35.070Z,100284.50
2022-10-24T22:33:45.736Z,100293.69
2022-10-24T22:36:12.978Z,100300.81
2022-10-24T22:38:39.355Z,100297.72
2022-10-24T22:41:05.787Z,100308.91
2022-10-24T22:43:32.218Z,100302.50
2022-10-24T22:48:43.333Z,100304.78
2022-10-24T22:51:09.814Z,100308.41
2022-10-24T22:53:37.032Z,100303.31
2022-10-24T22:56:04.317Z,100303.28
2022-10-24T22:58:32.590Z,100304.09
2022-10-24T23:03:57.189Z,100304.47
2022-10-24T23:06:23.649Z,100304.00
2022-10-24T23:08:50.889Z,100302.09
2022-10-24T23:11:17.387Z,100298.50
2022-10-24T23:13:43.857Z,100300.81
2022-10-24T23:19:07.104Z,100287.75
2022-10-24T23:21:34.333Z,100300.88
2022-10-24T23:24:01.590Z,100300.88
2022-10-24T23:26:27.968Z,100306.03
2022-10-24T23:28:55.251Z,100310.41
2022-10-24T23:34:16.461Z,100308.84
2022-10-24T23:36:42.983Z,100318.34
2022-10-24T23:39:09.413Z,100323.09
2022-10-24T23:41:37.755Z,100321.09
2022-10-24T23:44:05.009Z,100318.75
2022-10-24T23:49:17.042Z,100316.44
2022-10-24T23:51:43.457Z,100317.16
2022-10-24T23:54:09.884Z,100318.41
2022-10-24T23:56:38.157Z,100318.84
2022-10-24T23:59:05.456Z,100313.31
